Terminal Aerodrome Forecast
Issued by NWS Huntsville, AL

Home | Current Version | Previous Version | Text Only | Print | Product List | Glossary On
Versions: 1 2 3 4 5 6 7 8 9 10 11 12 13 14 15 16
000
FTUS44 KHUN 011121
TAFMSL
TAF
KMSL 011121Z 0112/0212 VRB03KT P6SM SCT030 OVC050
     FM011400 22008KT P6SM SCT035 BKN070
     FM011900 23009G14KT P6SM VCTS SCT025 BKN040CB PROB30 0121/0201
      3SM TSRA BKN025CB
     FM020200 VRB04KT P6SM VCSH BKN025
      AMD NOT SKED=

USA.gov is the U.S. government's official web portal to all federal, state and local government web resources and services.